Argenta, Illinois
Current Conditions -  °F | °C
As of 10:54 AM on Saturday 20 Dec 2014 (Local Time) from KDEC Reporting Station
Overcast Overcast  
Wind Chill: 27°   Ceiling: 6000
Heat Index: 33°   Visibility: 8mi
Dew Point: 28°   Wind: 7mph
Humidity: 82%   Direction: 180°S
Pressure: 30.3"   Gusts: NA
Location:  39.98°N, 88.82°W
Report Text: KDEC 201654Z 18006KT 8SM OVC060 01/M02 A3030 RMK AO2 SLP267 T00061022
Loading
Personal Weather Stations






























Interactive Weather Map New forecast layout! Learn more

10-Day Weather Forecast

Advertisements
Track Severe Weather on mobile